Time;durP1;ratioP1;P1;durP2;ratioP2;P2;SDS_P1;SDS_P2;PMS_P1;PMS_P2;Temp;Humidity;BMP_temperature;BMP_pressure;BME280_temperature;BME280_humidity;BME280_pressure;Samples;Min_cycle;Max_cycle;Signal;HPM_P1;HPM_P2
2023/05/13 00:01:37;;;;;;;61.72;31.23;;;;;;;14.19;100.00;102204.78;5051290;28;20352;-44
2023/05/13 00:04:05;;;;;;;58.65;30.30;;;;;;;14.23;100.00;102197.16;5056998;28;20024;-41
2023/05/13 00:06:31;;;;;;;58.78;29.00;;;;;;;14.23;100.00;102203.41;5070721;28;20040;-45
2023/05/13 00:08:57;;;;;;;55.03;29.42;;;;;;;14.20;100.00;102202.91;5069181;28;20059;-44
2023/05/13 00:11:23;;;;;;;63.28;30.23;;;;;;;14.17;100.00;102200.56;5068823;28;20048;-42
2023/05/13 00:13:48;;;;;;;61.50;29.63;;;;;;;14.16;100.00;102194.25;5070036;28;20028;-42
2023/05/13 00:16:14;;;;;;;50.75;28.98;;;;;;;14.14;100.00;102193.63;5069744;28;20541;-43
2023/05/13 00:18:40;;;;;;;56.67;27.02;;;;;;;14.13;100.00;102200.03;5069997;28;20024;-42
2023/05/13 00:21:06;;;;;;;54.38;28.05;;;;;;;14.17;100.00;102193.28;5050997;28;20386;-46
2023/05/13 00:23:31;;;;;;;58.58;28.80;;;;;;;14.10;100.00;102191.41;5051547;28;20021;-44
2023/05/13 00:25:57;;;;;;;57.75;28.65;;;;;;;14.03;100.00;102181.28;5070432;28;20028;-41
2023/05/13 00:28:23;;;;;;;54.58;29.77;;;;;;;14.02;100.00;102194.97;5070433;28;20108;-41
2023/05/13 00:30:49;;;;;;;62.97;29.73;;;;;;;13.99;100.00;102192.63;5052892;28;20033;-43
2023/05/13 00:33:15;;;;;;;53.83;29.20;;;;;;;13.95;100.00;102188.56;5050364;28;20493;-41
2023/05/13 00:35:40;;;;;;;51.13;26.67;;;;;;;13.94;100.00;102187.72;5066403;28;20028;-45
2023/05/13 00:38:06;;;;;;;52.75;27.20;;;;;;;13.96;100.00;102190.25;5068820;28;20036;-42
2023/05/13 00:40:33;;;;;;;58.95;27.60;;;;;;;13.91;100.00;102189.94;5053911;28;20032;-43
2023/05/13 00:42:58;;;;;;;57.15;27.98;;;;;;;13.90;100.00;102193.63;5049113;28;20029;-43
2023/05/13 00:45:23;;;;;;;56.15;27.77;;;;;;;13.92;100.00;102191.63;5050189;28;20498;-43
2023/05/13 00:47:49;;;;;;;62.28;28.00;;;;;;;13.93;100.00;102187.88;5049020;28;20059;-41
2023/05/13 00:50:14;;;;;;;50.83;26.65;;;;;;;13.93;100.00;102187.88;5048939;28;20036;-44
2023/05/13 00:52:41;;;;;;;46.55;24.75;;;;;;;13.94;100.00;102178.75;5049733;28;20406;-45
2023/05/13 00:55:08;;;;;;;49.00;25.42;;;;;;;13.93;100.00;102182.47;5048687;28;20021;-42
2023/05/13 00:57:34;;;;;;;46.33;24.98;;;;;;;13.95;100.00;102175.03;5050305;28;20021;-45
2023/05/13 01:00:00;;;;;;;49.70;24.90;;;;;;;13.96;100.00;102182.16;5058649;28;20089;-41
2023/05/13 01:02:44;;;;;;;45.10;23.67;;;;;;;13.91;100.00;102168.28;5070300;28;20033;-41
2023/05/13 01:05:25;;;;;;;41.92;22.95;;;;;;;13.93;100.00;102180.63;5069600;28;20025;-41
2023/05/13 01:08:09;;;;;;;51.50;22.10;;;;;;;13.88;100.00;102166.75;5056012;28;20024;-45
2023/05/13 01:10:48;;;;;;;54.83;22.33;;;;;;;13.82;100.00;102172.84;5048292;28;20119;-42
2023/05/13 01:13:17;;;;;;;39.20;20.88;;;;;;;13.85;100.00;102161.69;5048970;28;20029;-43
2023/05/13 01:15:52;;;;;;;38.03;21.08;;;;;;;13.83;100.00;102167.28;5048599;28;20032;-43
2023/05/13 01:18:26;;;;;;;39.38;21.25;;;;;;;13.79;100.00;102160.50;5063768;28;20071;-43
2023/05/13 01:20:53;;;;;;;42.50;21.23;;;;;;;13.78;100.00;102164.22;5052426;28;20374;-43
2023/05/13 01:23:18;;;;;;;30.40;17.58;;;;;;;13.74;100.00;102156.63;5068858;28;20033;-43
2023/05/13 01:25:44;;;;;;;38.35;18.02;;;;;;;13.74;100.00;102160.16;5069411;28;20461;-46
2023/05/13 01:28:09;;;;;;;33.33;16.38;;;;;;;13.74;100.00;102154.75;5068883;28;20366;-44
2023/05/13 01:30:35;;;;;;;30.52;15.75;;;;;;;13.70;100.00;102148.00;5066750;28;20047;-47
2023/05/13 01:33:01;;;;;;;26.38;15.00;;;;;;;13.64;100.00;102148.69;5069824;28;20016;-45
2023/05/13 01:35:27;;;;;;;27.88;14.38;;;;;;;13.63;100.00;102144.28;5061663;28;20502;-43
2023/05/13 01:37:54;;;;;;;27.10;13.65;;;;;;;13.60;100.00;102139.22;5048512;28;20036;-44
2023/05/13 01:40:20;;;;;;;22.77;14.10;;;;;;;13.54;100.00;102148.03;5048452;28;20021;-42
2023/05/13 01:42:45;;;;;;;23.67;14.23;;;;;;;13.47;100.00;102147.00;5049733;28;20498;-47
2023/05/13 01:45:11;;;;;;;24.85;15.05;;;;;;;13.32;100.00;102144.97;5051933;28;20078;-42
2023/05/13 01:47:36;;;;;;;27.38;15.45;;;;;;;13.26;100.00;102147.47;5057877;28;20104;-45
2023/05/13 01:50:02;;;;;;;27.55;16.27;;;;;;;13.20;100.00;102154.41;5051596;28;20401;-42
2023/05/13 01:52:27;;;;;;;24.92;16.15;;;;;;;13.19;100.00;102155.38;5051516;28;20090;-43
2023/05/13 01:54:53;;;;;;;26.83;16.05;;;;;;;13.15;100.00;102160.28;5067925;28;20483;-43
2023/05/13 01:57:19;;;;;;;33.17;16.13;;;;;;;13.01;100.00;102149.31;5048352;28;20106;-42
2023/05/13 01:59:44;;;;;;;35.15;16.83;;;;;;;12.91;100.00;102152.16;5048894;28;20044;-43
2023/05/13 02:02:10;;;;;;;28.83;16.75;;;;;;;12.81;100.00;102154.16;5049630;28;20063;-41
2023/05/13 02:04:35;;;;;;;34.83;18.50;;;;;;;12.71;100.00;102162.38;5051093;28;20021;-43
2023/05/13 02:07:00;;;;;;;32.05;17.52;;;;;;;12.72;100.00;102161.38;5053170;28;20025;-42
2023/05/13 02:09:26;;;;;;;45.03;19.33;;;;;;;12.63;100.00;102159.66;5051994;28;20056;-42
2023/05/13 02:11:51;;;;;;;34.55;18.48;;;;;;;12.55;100.00;102171.25;5052609;28;20142;-42
2023/05/13 02:14:17;;;;;;;45.03;19.58;;;;;;;12.51;100.00;102173.47;5052373;28;20044;-42
2023/05/13 02:16:42;;;;;;;40.22;19.80;;;;;;;12.41;100.00;102172.72;5059523;28;20036;-43
2023/05/13 02:19:08;;;;;;;41.90;18.70;;;;;;;12.36;100.00;102174.22;5071775;28;20039;-44
2023/05/13 02:21:33;;;;;;;48.30;20.05;;;;;;;12.34;100.00;102170.84;5072843;28;20143;-41
2023/05/13 02:23:59;;;;;;;36.75;20.77;;;;;;;12.26;100.00;102179.72;5071245;28;20406;-43
2023/05/13 02:26:24;;;;;;;42.28;20.15;;;;;;;12.27;100.00;102186.84;5072615;28;20035;-42
2023/05/13 02:28:49;;;;;;;51.58;20.67;;;;;;;12.19;100.00;102194.88;5070527;28;20040;-46
2023/05/13 02:31:15;;;;;;;42.35;20.13;;;;;;;12.10;100.00;102193.97;5071036;28;20056;-41
2023/05/13 02:33:41;;;;;;;54.22;22.10;;;;;;;12.04;100.00;102192.75;5060336;28;20033;-44
2023/05/13 02:36:06;;;;;;;56.35;22.98;;;;;;;11.98;100.00;102189.84;5051337;28;20020;-44
2023/05/13 02:38:32;;;;;;;56.45;23.73;;;;;;;11.94;100.00;102202.81;5052492;28;20025;-43
2023/05/13 02:40:57;;;;;;;64.97;25.65;;;;;;;11.89;100.00;102198.91;5052331;28;20029;-42
2023/05/13 02:43:23;;;;;;;53.60;25.63;;;;;;;11.88;100.00;102203.44;5039714;28;20033;-43
2023/05/13 02:45:49;;;;;;;61.85;25.75;;;;;;;11.81;100.00;102200.47;5052739;28;20086;-44
2023/05/13 02:48:14;;;;;;;54.47;26.88;;;;;;;11.78;100.00;102199.97;5066554;28;20033;-42
2023/05/13 02:50:40;;;;;;;62.42;28.10;;;;;;;11.79;100.00;102207.03;5071119;28;20024;-42
2023/05/13 02:53:06;;;;;;;65.25;29.23;;;;;;;11.77;100.00;102207.22;5065916;28;20395;-43
2023/05/13 02:55:31;;;;;;;63.38;29.38;;;;;;;11.73;100.00;102216.59;5051119;28;20033;-45
2023/05/13 02:57:56;;;;;;;62.33;29.67;;;;;;;11.69;100.00;102211.66;5062101;28;20460;-44
2023/05/13 03:00:22;;;;;;;66.57;31.23;;;;;;;11.67;100.00;102211.84;5072388;28;20071;-44
2023/05/13 03:02:47;;;;;;;62.78;31.08;;;;;;;11.66;100.00;102215.53;5071925;28;20020;-47
2023/05/13 03:05:13;;;;;;;73.07;31.30;;;;;;;11.65;100.00;102214.69;5064015;28;20123;-42
2023/05/13 03:07:38;;;;;;;75.80;33.33;;;;;;;11.61;100.00;102220.53;5057809;28;20082;-43
2023/05/13 03:10:04;;;;;;;83.50;34.33;;;;;;;11.63;100.00;102227.47;5067269;28;20028;-41
2023/05/13 03:12:30;;;;;;;87.28;33.63;;;;;;;11.58;100.00;102213.59;5068221;28;20120;-43
2023/05/13 03:14:55;;;;;;;74.88;33.78;;;;;;;11.58;100.00;102213.59;5069660;28;20528;-42
2023/05/13 03:17:20;;;;;;;83.80;35.20;;;;;;;11.62;100.00;102214.16;5061805;28;20586;-43
2023/05/13 03:19:46;;;;;;;84.28;36.50;;;;;;;11.63;100.00;102219.38;5049942;28;20029;-43
2023/05/13 03:22:11;;;;;;;78.43;34.75;;;;;;;11.59;100.00;102214.47;5066592;28;20437;-42
2023/05/13 03:24:36;;;;;;;74.90;36.45;;;;;;;11.59;100.00;102225.25;5068387;28;20031;-44
2023/05/13 03:27:02;;;;;;;87.18;38.30;;;;;;;11.58;100.00;102223.53;5065511;28;20104;-43
2023/05/13 03:29:27;;;;;;;83.05;37.60;;;;;;;11.53;100.00;102221.34;5047706;28;20411;-42
2023/05/13 03:31:53;;;;;;;90.68;37.88;;;;;;;11.50;100.00;102216.22;5056879;28;20502;-44
2023/05/13 03:34:19;;;;;;;92.60;39.97;;;;;;;11.51;100.00;102222.50;5069140;28;20036;-43
2023/05/13 03:36:44;;;;;;;77.68;38.28;;;;;;;11.45;100.00;102223.94;5069104;28;20047;-43
2023/05/13 03:39:09;;;;;;;78.95;38.90;;;;;;;11.48;100.00;102228.16;5069457;28;20497;-42
2023/05/13 03:41:35;;;;;;;84.95;40.38;;;;;;;11.45;100.00;102229.31;5061969;28;20078;-45
2023/05/13 03:44:00;;;;;;;92.68;40.28;;;;;;;11.45;100.00;102229.31;5049487;28;20068;-43
2023/05/13 03:46:26;;;;;;;96.45;41.17;;;;;;;11.47;100.00;102229.19;5054879;28;20048;-43
2023/05/13 03:48:52;;;;;;;82.55;39.78;;;;;;;11.45;100.00;102232.00;5047628;28;20043;-45
2023/05/13 03:51:17;;;;;;;93.85;41.45;;;;;;;11.41;100.00;102230.66;5049437;28;20025;-45
2023/05/13 03:53:44;;;;;;;88.68;41.80;;;;;;;11.42;100.00;102243.13;5048268;28;20464;-45
2023/05/13 03:56:09;;;;;;;101.53;41.47;;;;;;;11.46;100.00;102236.44;5049662;28;20029;-43
2023/05/13 03:58:35;;;;;;;103.32;41.15;;;;;;;11.42;100.00;102245.81;5049910;28;20309;-45
2023/05/13 04:01:01;;;;;;;103.15;41.85;;;;;;;11.42;100.00;102237.72;5048382;28;20047;-42
2023/05/13 04:03:26;;;;;;;107.35;42.42;;;;;;;11.43;100.00;102240.28;5049738;28;20078;-43
2023/05/13 04:05:51;;;;;;;109.70;44.50;;;;;;;11.44;100.00;102238.41;5053443;28;20027;-46
2023/05/13 04:08:17;;;;;;;103.70;42.42;;;;;;;11.41;100.00;102231.50;5054014;28;20090;-43
2023/05/13 04:10:42;;;;;;;112.88;44.05;;;;;;;11.43;100.00;102236.75;5057141;28;20544;-44
2023/05/13 04:13:08;;;;;;;96.43;44.00;;;;;;;11.46;100.00;102236.44;5069439;28;20048;-45
2023/05/13 04:15:33;;;;;;;100.68;42.58;;;;;;;11.48;100.00;102233.56;5059241;28;20029;-42
2023/05/13 04:17:59;;;;;;;108.10;42.20;;;;;;;11.45;100.00;102234.72;5057901;28;20111;-41
2023/05/13 04:20:24;;;;;;;102.20;41.42;;;;;;;11.46;100.00;102232.88;5031408;28;20060;-41
2023/05/13 04:22:50;;;;;;;112.70;42.03;;;;;;;11.49;100.00;102235.28;5048834;28;20029;-43
2023/05/13 04:25:16;;;;;;;107.55;42.30;;;;;;;11.49;100.00;102236.13;5051137;28;20017;-43
2023/05/13 04:27:42;;;;;;;102.32;39.88;;;;;;;11.52;100.00;102240.34;5066308;28;20037;-44
2023/05/13 04:30:07;;;;;;;95.47;39.95;;;;;;;11.53;100.00;102244.72;5068681;28;20473;-43
2023/05/13 04:32:33;;;;;;;99.05;39.20;;;;;;;11.55;100.00;102245.44;5067582;28;20414;-43
2023/05/13 04:35:00;;;;;;;95.20;37.75;;;;;;;11.58;100.00;102248.66;5069541;28;20082;-42
2023/05/13 04:37:26;;;;;;;97.65;39.05;;;;;;;11.63;100.00;102245.50;5069660;28;20035;-45
2023/05/13 04:39:51;;;;;;;95.82;37.90;;;;;;;11.63;100.00;102249.03;5069560;28;20159;-44
2023/05/13 04:42:16;;;;;;;98.95;38.78;;;;;;;11.72;100.00;102244.59;5065418;28;20116;-46
2023/05/13 04:44:42;;;;;;;94.03;37.17;;;;;;;11.75;100.00;102246.13;5050663;28;20059;-45
2023/05/13 04:47:08;;;;;;;79.57;35.80;;;;;;;11.89;100.00;102248.28;5059736;28;20028;-46
2023/05/13 04:49:33;;;;;;;91.30;36.55;;;;;;;11.88;100.00;102251.16;5052960;28;20028;-43
2023/05/13 04:52:03;;;;;;;86.82;35.58;;;;;;;11.91;100.00;102246.28;5071759;28;20029;-43
2023/05/13 04:54:28;;;;;;;98.97;35.92;;;;;;;11.98;100.00;102252.75;5069019;28;20025;-41
2023/05/13 04:56:54;;;;;;;104.72;36.95;;;;;;;12.07;100.00;102245.56;5069594;28;20071;-44
2023/05/13 04:59:19;;;;;;;89.30;34.22;;;;;;;12.11;100.00;102246.09;5068603;28;20064;-46
2023/05/13 05:01:44;;;;;;;91.25;35.40;;;;;;;12.21;100.00;102247.69;5060216;28;20035;-47
2023/05/13 05:04:11;;;;;;;88.15;35.15;;;;;;;12.21;100.00;102241.44;5076767;28;20516;-43
2023/05/13 05:06:37;;;;;;;86.47;33.58;;;;;;;12.26;100.00;102244.50;5072604;28;20082;-45
2023/05/13 05:09:02;;;;;;;92.43;34.25;;;;;;;12.30;100.00;102249.44;5061289;28;20017;-43
2023/05/13 05:11:28;;;;;;;84.55;34.95;;;;;;;12.38;100.00;102247.81;5068508;28;20112;-44
2023/05/13 05:13:53;;;;;;;75.70;33.15;;;;;;;12.49;100.00;102248.38;5041541;28;20471;-44
2023/05/13 05:16:19;;;;;;;108.38;36.35;;;;;;;12.56;100.00;102250.41;5058544;28;20025;-43
2023/05/13 05:18:44;;;;;;;83.95;30.90;;;;;;;12.59;100.00;102242.03;5051762;28;20054;-42
2023/05/13 05:21:10;;;;;;;82.00;31.45;;;;;;;12.64;100.00;102242.38;5057246;28;20462;-42
2023/05/13 05:23:36;;;;;;;81.45;31.58;;;;;;;12.71;100.00;102238.84;5049927;28;20373;-46
2023/05/13 05:26:02;;;;;;;84.75;31.80;;;;;;;12.74;100.00;102248.50;5056500;28;20081;-45
2023/05/13 05:28:28;;;;;;;91.57;32.67;;;;;;;12.80;100.00;102247.88;5065967;28;20028;-43
2023/05/13 05:30:53;;;;;;;79.03;31.15;;;;;;;12.94;100.00;102249.09;5051935;28;20420;-47
2023/05/13 05:33:19;;;;;;;81.10;29.83;;;;;;;13.07;100.00;102245.94;5065103;28;20158;-42
2023/05/13 05:35:44;;;;;;;80.10;29.98;;;;;;;13.17;100.00;102243.94;5057797;28;20035;-44
2023/05/13 05:38:11;;;;;;;73.53;29.25;;;;;;;13.28;100.00;102240.94;5053120;28;20128;-44
2023/05/13 05:40:39;;;;;;;72.95;28.25;;;;;;;13.37;100.00;102241.81;5050567;28;20040;-44
2023/05/13 05:43:04;;;;;;;81.20;28.08;;;;;;;13.47;100.00;102239.78;5049044;28;20067;-43
2023/05/13 05:45:29;;;;;;;68.07;27.73;;;;;;;13.52;100.00;102248.25;5048852;28;20025;-42
2023/05/13 05:47:56;;;;;;;80.30;27.15;;;;;;;13.67;100.00;102231.38;5051716;28;20341;-44
2023/05/13 05:50:22;;;;;;;87.60;27.40;;;;;;;13.75;100.00;102226.81;5032196;28;20461;-47
2023/05/13 05:52:48;;;;;;;63.65;25.55;;;;;;;13.88;100.00;102233.59;5032415;28;20560;-44
2023/05/13 05:55:13;;;;;;;63.92;25.45;;;;;;;14.01;100.00;102233.91;5048059;28;20047;-45
2023/05/13 05:57:38;;;;;;;65.72;25.33;;;;;;;14.18;100.00;102226.59;5047025;28;20057;-42
2023/05/13 06:00:04;;;;;;;64.15;23.63;;;;;;;14.57;100.00;102236.69;5053567;28;20085;-43
2023/05/13 06:02:30;;;;;;;57.10;22.45;;;;;;;15.01;100.00;102228.91;5070385;28;20024;-44
2023/05/13 06:04:55;;;;;;;50.15;21.58;;;;;;;15.53;100.00;102213.81;5071181;28;20060;-44
2023/05/13 06:07:20;;;;;;;54.28;21.00;;;;;;;16.18;100.00;102212.41;5037722;28;20025;-44
2023/05/13 06:09:46;;;;;;;48.30;19.33;;;;;;;16.93;100.00;102213.25;5052413;28;20104;-44
2023/05/13 06:12:11;;;;;;;57.20;20.10;;;;;;;17.62;100.00;102202.69;5051186;28;20033;-46
2023/05/13 06:14:38;;;;;;;45.15;17.70;;;;;;;18.46;100.00;102199.16;5051123;28;20079;-43
2023/05/13 06:17:03;;;;;;;41.45;15.77;;;;;;;19.18;100.00;102196.94;5049839;28;20056;-42
2023/05/13 06:19:29;;;;;;;34.75;15.70;;;;;;;19.67;100.00;102196.63;5052552;28;20066;-43
2023/05/13 06:21:54;;;;;;;42.03;15.63;;;;;;;20.17;100.00;102185.25;5052914;28;20125;-43
2023/05/13 06:24:20;;;;;;;37.50;15.30;;;;;;;20.72;100.00;102196.69;5069741;28;20104;-42
2023/05/13 06:26:45;;;;;;;26.17;12.50;;;;;;;21.22;100.00;102198.75;5067801;28;20410;-44
2023/05/13 06:29:12;;;;;;;36.97;13.98;;;;;;;21.61;100.00;102189.44;5069796;28;20029;-47
2023/05/13 06:31:37;;;;;;;34.15;12.75;;;;;;;22.13;100.00;102187.28;5053348;28;20029;-44
2023/05/13 06:34:02;;;;;;;37.58;13.30;;;;;;;22.14;99.64;102185.38;5048706;28;20130;-43
2023/05/13 06:36:28;;;;;;;29.48;12.88;;;;;;;22.12;96.65;102188.38;5051578;28;20068;-48
2023/05/13 06:38:53;;;;;;;37.72;13.98;;;;;;;22.27;97.91;102190.75;5049107;28;20069;-45
2023/05/13 06:41:19;;;;;;;34.05;13.10;;;;;;;22.34;98.91;102194.28;5050304;28;20456;-43
2023/05/13 06:43:45;;;;;;;33.30;13.13;;;;;;;22.76;99.36;102188.09;5050689;28;20025;-46
2023/05/13 06:46:11;;;;;;;32.13;12.90;;;;;;;23.12;96.66;102191.88;5050551;28;20450;-48
2023/05/13 06:48:37;;;;;;;33.65;13.05;;;;;;;23.44;93.33;102204.25;5069032;28;20040;-44
2023/05/13 06:51:03;;;;;;;39.30;14.15;;;;;;;23.39;92.27;102198.63;5067477;28;20027;-46
2023/05/13 06:53:30;;;;;;;33.13;13.55;;;;;;;23.26;94.55;102204.34;5070185;28;20761;-44
2023/05/13 06:55:56;;;;;;;29.45;11.43;;;;;;;23.64;91.31;102194.84;5067347;28;20056;-43
2023/05/13 06:58:21;;;;;;;31.73;13.02;;;;;;;24.04;87.84;102194.19;5070305;28;20067;-46
2023/05/13 07:00:46;;;;;;;31.83;11.90;;;;;;;24.15;86.56;102196.13;5066862;28;20102;-45
2023/05/13 07:03:12;;;;;;;32.47;10.75;;;;;;;24.45;84.82;102204.25;5068555;28;20041;-47
2023/05/13 07:05:37;;;;;;;40.83;12.02;;;;;;;24.29;87.87;102197.53;5068211;28;20027;-48
2023/05/13 07:08:05;;;;;;;29.15;12.45;;;;;;;24.52;85.31;102204.97;5052927;28;20021;-44
2023/05/13 07:10:32;;;;;;;35.15;12.60;;;;;;;23.88;89.23;102209.50;5057608;28;20044;-45
2023/05/13 07:12:59;;;;;;;;;;;;;;;24.29;87.10;102208.53;5070654;28;20355;-43
2023/05/13 07:15:24;;;;;;;31.15;11.85;;;;;;;24.04;88.96;102210.69;5066886;28;20278;-42
2023/05/13 07:17:49;;;;;;;35.55;11.90;;;;;;;24.60;85.60;102209.25;5069010;28;20070;-46
2023/05/13 07:20:15;;;;;;;33.60;10.75;;;;;;;24.69;84.76;102205.03;5068513;28;20494;-44
2023/05/13 07:22:40;;;;;;;35.55;12.98;;;;;;;24.27;83.40;102205.19;5063009;28;20060;-44
2023/05/13 07:25:06;;;;;;;29.40;11.48;;;;;;;24.65;84.19;102201.09;5045705;28;20025;-42
2023/05/13 07:27:31;;;;;;;30.85;10.68;;;;;;;24.22;86.63;102196.00;5059658;28;20112;-45
2023/05/13 07:29:57;;;;;;;27.88;9.50;;;;;;;25.46;80.74;102198.28;5063358;28;20041;-46
2023/05/13 07:32:22;;;;;;;27.63;10.48;;;;;;;24.97;82.98;102192.38;5054016;28;20089;-43
2023/05/13 07:34:47;;;;;;;26.85;9.13;;;;;;;25.12;81.85;102195.44;5065445;28;20131;-47
2023/05/13 07:37:13;;;;;;;24.55;8.88;;;;;;;26.09;76.72;102195.44;5066695;28;20035;-44
2023/05/13 07:39:38;;;;;;;23.05;9.65;;;;;;;26.22;75.78;102197.81;5067656;28;20035;-44
2023/05/13 07:42:04;;;;;;;35.38;10.13;;;;;;;26.27;73.09;102192.38;5066223;28;20454;-42
2023/05/13 07:44:29;;;;;;;32.13;9.88;;;;;;;25.75;75.20;102195.41;5031261;28;20471;-46
2023/05/13 07:46:54;;;;;;;20.70;8.43;;;;;;;26.07;74.67;102203.97;5046944;28;20120;-43
2023/05/13 07:49:20;;;;;;;17.35;7.88;;;;;;;25.76;75.21;102202.63;5048809;28;20506;-42
2023/05/13 07:51:46;;;;;;;25.08;9.73;;;;;;;25.42;76.00;102202.59;5049821;28;20166;-44
2023/05/13 07:54:11;;;;;;;22.98;9.45;;;;;;;25.47;76.16;102194.41;5054591;28;20036;-43
2023/05/13 07:56:37;;;;;;;22.05;8.25;;;;;;;25.92;75.81;102199.03;5059325;28;20752;-46
2023/05/13 07:59:03;;;;;;;26.27;8.98;;;;;;;25.91;74.46;102189.13;5051467;28;20060;-43
2023/05/13 08:01:28;;;;;;;20.40;7.55;;;;;;;26.86;73.05;102189.03;5053122;28;20040;-45
2023/05/13 08:03:54;;;;;;;25.33;8.32;;;;;;;26.81;71.46;102187.03;5057615;28;20071;-46
2023/05/13 08:06:19;;;;;;;26.08;8.98;;;;;;;26.64;72.56;102184.34;5062233;28;20082;-43
2023/05/13 08:08:44;;;;;;;26.80;8.10;;;;;;;27.26;70.53;102191.41;5062911;28;20486;-43
2023/05/13 08:11:10;;;;;;;31.75;7.72;;;;;;;26.85;71.63;102185.41;5051765;28;20088;-43
2023/05/13 08:13:35;;;;;;;25.48;8.35;;;;;;;26.58;71.99;102190.06;5055537;28;20024;-44
2023/05/13 08:16:02;;;;;;;23.02;7.65;;;;;;;26.74;72.17;102197.44;5031557;28;20028;-45
2023/05/13 08:18:28;;;;;;;22.02;8.77;;;;;;;27.13;69.18;102197.31;5047816;28;20368;-44
2023/05/13 08:20:53;;;;;;;28.50;8.15;;;;;;;26.92;71.09;102194.34;5050639;28;20517;-46
2023/05/13 08:23:19;;;;;;;19.83;6.70;;;;;;;27.11;70.98;102196.75;5057170;28;20039;-43
2023/05/13 08:25:44;;;;;;;23.17;8.60;;;;;;;27.30;70.21;102198.06;5043153;28;20041;-46
2023/05/13 08:28:11;;;;;;;19.33;7.20;;;;;;;27.26;68.33;102196.94;5057403;28;20032;-48
2023/05/13 08:30:39;;;;;;;30.33;7.28;;;;;;;28.45;64.95;102196.75;5059125;28;20437;-42
2023/05/13 08:33:04;;;;;;;19.33;7.13;;;;;;;28.21;66.52;102197.16;5048613;28;20151;-46
2023/05/13 08:35:31;;;;;;;21.05;7.00;;;;;;;27.62;66.33;102188.97;5052617;28;20116;-42
2023/05/13 08:37:56;;;;;;;19.33;6.47;;;;;;;27.48;70.22;102193.25;5054851;28;20687;-44
2023/05/13 08:40:22;;;;;;;20.70;6.55;;;;;;;27.31;69.79;102196.16;5067799;28;20021;-44
2023/05/13 08:42:49;;;;;;;25.98;6.88;;;;;;;27.39;67.52;102209.50;5068017;28;20033;-46
2023/05/13 08:45:16;;;;;;;25.52;7.50;;;;;;;27.36;66.59;102202.56;5068131;28;20105;-43
2023/05/13 08:47:57;;;;;;;27.20;7.22;;;;;;;27.74;64.07;102206.19;5060717;28;20032;-44
2023/05/13 08:50:23;;;;;;;24.58;7.30;;;;;;;27.17;68.17;102197.63;5050519;28;20036;-49
2023/05/13 08:52:51;;;;;;;20.77;6.67;;;;;;;26.73;70.64;102206.00;5053412;28;20051;-42
2023/05/13 08:55:16;;;;;;;23.27;7.43;;;;;;;26.96;70.70;102196.56;5060222;28;20037;-43
2023/05/13 08:57:41;;;;;;;23.25;6.53;;;;;;;26.78;68.40;102206.91;5066136;28;20044;-44
2023/05/13 09:00:07;;;;;;;17.05;6.68;;;;;;;26.81;71.14;102203.59;5047528;28;20091;-44
2023/05/13 09:02:33;;;;;;;21.85;6.93;;;;;;;26.72;68.77;102207.91;5060521;28;20063;-43
2023/05/13 09:05:01;;;;;;;23.48;6.50;;;;;;;27.05;70.11;102211.59;5064163;28;20078;-49
2023/05/13 09:07:29;;;;;;;27.00;7.18;;;;;;;27.11;66.72;102211.38;5050740;28;20039;-48
2023/05/13 09:09:55;;;;;;;20.85;6.53;;;;;;;27.51;63.86;102204.63;5061183;28;20048;-44
2023/05/13 09:12:54;;;;;;;22.77;6.40;;;;;;;27.11;68.18;102211.38;5067072;28;20498;-43
2023/05/13 09:15:24;;;;;;;23.77;6.43;;;;;;;27.67;67.86;102213.03;5067469;28;20072;-47
2023/05/13 09:18:03;;;;;;;25.02;6.78;;;;;;;26.96;67.84;102208.44;5071473;28;20029;-45
2023/05/13 09:20:30;;;;;;;22.73;6.10;;;;;;;27.17;66.68;102209.53;5053428;28;20033;-45
2023/05/13 09:23:00;;;;;;;16.50;6.43;;;;;;;26.66;69.11;102203.41;5057075;28;20024;-46
2023/05/13 09:25:26;;;;;;;20.63;6.55;;;;;;;27.27;65.02;102217.94;5058934;28;20048;-44
2023/05/13 09:27:56;;;;;;;21.90;5.50;;;;;;;26.86;68.88;102214.72;5051670;28;20078;-45
2023/05/13 09:30:22;;;;;;;26.13;6.78;;;;;;;26.81;70.93;102211.91;5058612;28;20021;-42
2023/05/13 09:33:09;;;;;;;23.33;7.45;;;;;;;27.80;65.72;102207.06;5060539;28;20056;-44
2023/05/13 09:35:39;;;;;;;27.83;6.35;;;;;;;28.02;63.34;102204.22;5067254;28;20028;-44
2023/05/13 09:38:12;;;;;;;25.30;6.22;;;;;;;28.17;62.78;102204.34;5055820;28;20032;-41
2023/05/13 09:40:37;;;;;;;19.05;6.78;;;;;;;28.01;63.42;102208.06;5055188;28;20041;-44
2023/05/13 09:43:04;;;;;;;25.55;6.63;;;;;;;26.62;66.96;102202.25;5054431;28;20395;-45
2023/05/13 09:45:30;;;;;;;20.17;5.97;;;;;;;27.07;68.53;102201.13;5070384;28;20039;-44
2023/05/13 09:47:56;;;;;;;17.98;6.55;;;;;;;27.13;66.81;102208.38;5070183;28;20016;-42
2023/05/13 09:50:22;;;;;;;16.63;6.50;;;;;;;27.36;66.05;102210.84;5064243;28;20082;-43
2023/05/13 09:52:48;;;;;;;23.58;6.50;;;;;;;27.04;66.77;102204.41;5049699;28;20037;-45
2023/05/13 09:55:13;;;;;;;25.48;7.15;;;;;;;26.72;68.38;102202.38;5051366;28;20055;-44
2023/05/13 09:57:39;;;;;;;28.10;6.60;;;;;;;27.27;66.35;102206.06;5054693;28;20028;-45
2023/05/13 10:00:06;;;;;;;26.15;6.53;;;;;;;27.26;67.84;102196.94;5059144;28;20102;-43
2023/05/13 10:02:32;;;;;;;24.20;7.30;;;;;;;27.31;65.33;102198.91;5057522;28;20037;-44
2023/05/13 10:04:57;;;;;;;19.63;6.85;;;;;;;27.15;66.95;102201.50;5062645;28;20279;-44
2023/05/13 10:07:24;;;;;;;23.80;6.78;;;;;;;27.20;66.69;102192.47;5052143;28;20112;-45
2023/05/13 10:09:57;;;;;;;20.38;5.95;;;;;;;27.75;64.26;102194.06;5052010;28;20436;-43
2023/05/13 10:12:27;;;;;;;19.80;6.68;;;;;;;27.44;64.74;102198.50;5050154;28;20048;-42
2023/05/13 10:14:54;;;;;;;20.92;6.07;;;;;;;26.97;65.54;102192.75;5050934;28;20493;-45
2023/05/13 10:17:24;;;;;;;28.42;7.78;;;;;;;26.76;66.47;102192.50;5051027;28;20376;-43
2023/05/13 10:19:51;;;;;;;25.58;7.13;;;;;;;26.85;68.64;102190.09;5056047;28;20167;-49
2023/05/13 10:22:26;;;;;;;30.27;7.13;;;;;;;27.10;66.56;102198.69;5053878;28;20701;-43
2023/05/13 10:24:57;;;;;;;27.67;7.30;;;;;;;26.88;66.88;102181.28;5050364;28;20024;-41
2023/05/13 10:27:27;;;;;;;18.58;6.00;;;;;;;26.37;68.81;102184.25;5051025;28;20032;-43
2023/05/13 10:29:53;;;;;;;25.38;7.15;;;;;;;26.32;71.10;102186.94;5049176;28;20029;-43
2023/05/13 10:32:20;;;;;;;23.10;7.47;;;;;;;26.32;68.58;102186.94;5049043;28;20500;-44
2023/05/13 10:34:45;;;;;;;21.95;7.55;;;;;;;26.25;69.11;102183.50;5030530;28;20040;-44
2023/05/13 10:37:17;;;;;;;21.25;6.80;;;;;;;25.95;70.00;102197.72;5049282;28;20402;-45
2023/05/13 10:40:15;;;;;;;16.55;7.63;;;;;;;25.93;71.29;102186.09;5050388;28;20025;-45
2023/05/13 10:42:55;;;;;;;24.95;7.63;;;;;;;25.59;72.91;102184.16;5032108;28;20045;-44
2023/05/13 10:45:24;;;;;;;17.13;6.85;;;;;;;25.84;73.04;102186.50;5055302;28;21405;-43
2023/05/13 10:47:50;;;;;;;19.52;7.07;;;;;;;25.39;72.22;102184.66;5050742;28;20036;-45
2023/05/13 10:50:25;;;;;;;20.75;7.03;;;;;;;25.86;73.54;102183.53;5050180;28;20028;-46
2023/05/13 10:52:55;;;;;;;17.73;6.45;;;;;;;25.68;73.01;102187.34;5051058;28;20438;-44
2023/05/13 10:55:21;;;;;;;26.85;7.28;;;;;;;25.49;72.35;102184.00;5050327;28;20025;-43
2023/05/13 10:58:12;;;;;;;18.67;6.20;;;;;;;25.91;72.60;102180.84;5049181;28;20173;-42
2023/05/13 11:00:40;;;;;;;15.23;6.20;;;;;;;26.31;70.92;102181.69;5048231;28;20049;-47
2023/05/13 11:03:27;;;;;;;19.05;6.53;;;;;;;26.55;68.23;102180.38;5048367;28;20384;-44
2023/05/13 11:06:12;;;;;;;19.20;6.95;;;;;;;26.21;69.59;102174.91;5049945;28;20037;-47